createdAt,value
2019-05-06T00:03:06.293Z,6.10
2019-05-06T00:06:30.143Z,6.10
2019-05-06T00:09:54.059Z,6.10
2019-05-06T00:13:17.898Z,6.10
2019-05-06T00:16:43.872Z,6.10
2019-05-06T00:20:08.055Z,6.00
2019-05-06T00:23:37.782Z,6.00
2019-05-06T00:27:04.799Z,6.00
2019-05-06T00:30:28.767Z,6.00
2019-05-06T00:33:53.984Z,6.00
2019-05-06T00:37:18.175Z,6.00
2019-05-06T00:40:43.696Z,6.00
2019-05-06T00:44:07.608Z,6.10
2019-05-06T00:47:33.849Z,6.00
2019-05-06T00:50:56.912Z,6.00
2019-05-06T00:54:25.295Z,6.00
2019-05-06T00:57:49.120Z,6.10
2019-05-06T01:01:24.089Z,6.10
2019-05-06T01:04:38.380Z,6.10
2019-05-06T01:08:04.072Z,6.10
2019-05-06T01:11:28.077Z,6.10
2019-05-06T01:14:54.523Z,6.10
2019-05-06T01:18:18.716Z,6.10
2019-05-06T01:21:44.556Z,6.10
2019-05-06T01:25:08.192Z,6.10
2019-05-06T01:28:34.047Z,6.10
2019-05-06T01:31:57.618Z,6.00
2019-05-06T01:35:21.454Z,6.00
2019-05-06T01:39:04.281Z,6.00
2019-05-06T01:42:31.636Z,6.00
2019-05-06T01:45:55.450Z,5.90
2019-05-06T01:49:19.292Z,5.90
2019-05-06T01:52:44.308Z,5.90
2019-05-06T01:56:08.202Z,5.90
2019-05-06T01:59:34.086Z,5.80
2019-05-06T02:02:57.589Z,5.80
2019-05-06T02:06:21.472Z,5.80
2019-05-06T02:09:45.350Z,5.80
2019-05-06T02:13:09.230Z,5.80
2019-05-06T02:16:34.314Z,5.80
2019-05-06T02:19:58.533Z,5.80
2019-05-06T02:23:39.008Z,5.80
2019-05-06T02:27:04.512Z,5.80
2019-05-06T02:30:45.114Z,5.70
2019-05-06T02:34:09.109Z,5.70
2019-05-06T02:37:40.849Z,5.70
2019-05-06T02:41:05.043Z,5.70
2019-05-06T02:44:28.869Z,5.70
2019-05-06T02:48:09.476Z,5.70
2019-05-06T02:51:33.506Z,5.70
2019-05-06T02:54:57.182Z,5.70
2019-05-06T02:58:23.500Z,5.60
2019-05-06T03:01:46.454Z,5.70
2019-05-06T03:05:12.804Z,5.70
2019-05-06T03:08:35.961Z,5.60
2019-05-06T03:12:03.378Z,5.60
2019-05-06T03:15:25.211Z,5.60
2019-05-06T03:18:49.048Z,5.60
2019-05-06T03:22:14.531Z,5.60
2019-05-06T03:25:39.887Z,5.50
2019-05-06T03:29:03.831Z,5.50
2019-05-06T03:32:30.638Z,5.50
2019-05-06T03:36:06.503Z,5.50
2019-05-06T03:39:18.743Z,5.50
2019-05-06T03:42:42.792Z,5.50
2019-05-06T03:46:14.015Z,5.50
2019-05-06T03:49:38.390Z,5.50
2019-05-06T03:53:03.689Z,5.60
2019-05-06T03:56:28.192Z,5.50
2019-05-06T03:59:53.643Z,5.50
2019-05-06T04:03:17.392Z,5.60
2019-05-06T04:06:43.692Z,5.50
2019-05-06T04:10:08.309Z,5.60
2019-05-06T04:13:33.312Z,5.60
2019-05-06T04:16:59.144Z,5.60
2019-05-06T04:20:24.831Z,5.60
2019-05-06T04:23:53.191Z,5.60
2019-05-06T04:27:42.759Z,5.70
2019-05-06T04:31:06.315Z,5.70
2019-05-06T04:34:33.158Z,5.80
2019-05-06T04:37:56.951Z,5.80
2019-05-06T04:41:23.158Z,5.80
2019-05-06T04:44:46.557Z,5.90
2019-05-06T04:48:13.951Z,5.90
2019-05-06T04:51:37.202Z,5.90
2019-05-06T04:55:03.424Z,5.90
2019-05-06T04:58:26.737Z,5.90
2019-05-06T05:01:53.420Z,6.00
2019-05-06T05:05:17.152Z,6.10
2019-05-06T05:08:42.729Z,6.10
2019-05-06T05:12:13.191Z,6.10
2019-05-06T05:15:53.417Z,6.20
2019-05-06T05:19:17.651Z,6.20
2019-05-06T05:22:42.382Z,6.30
2019-05-06T05:26:06.296Z,6.40
2019-05-06T05:29:32.391Z,6.40
2019-05-06T05:32:55.926Z,6.50
2019-05-06T05:36:23.066Z,6.50
2019-05-06T05:39:46.337Z,6.50
2019-05-06T05:43:28.120Z,6.60
2019-05-06T05:46:52.537Z,6.60
2019-05-06T05:50:18.091Z,6.70
2019-05-06T05:53:42.595Z,6.70
2019-05-06T05:57:06.734Z,6.90
2019-05-06T06:00:32.469Z,7.00
2019-05-06T06:03:56.632Z,6.90
2019-05-06T06:07:22.510Z,6.90
2019-05-06T06:10:52.229Z,7.00
2019-05-06T06:14:33.805Z,7.10
2019-05-06T06:18:16.495Z,7.20
2019-05-06T06:21:42.778Z,7.20
2019-05-06T06:25:07.166Z,7.40
2019-05-06T06:28:33.162Z,7.40
2019-05-06T06:32:14.870Z,7.40
2019-05-06T06:35:43.378Z,7.60
2019-05-06T06:39:18.118Z,7.70
2019-05-06T06:42:42.726Z,8.00
2019-05-06T06:46:09.415Z,8.30
2019-05-06T06:49:32.870Z,8.60
2019-05-06T06:52:57.088Z,8.80
2019-05-06T06:56:32.973Z,8.90
2019-05-06T07:00:04.107Z,8.80
2019-05-06T07:03:29.849Z,9.10
2019-05-06T07:06:55.222Z,9.20
2019-05-06T07:10:37.248Z,9.40
2019-05-06T07:14:02.592Z,9.30
2019-05-06T07:17:26.750Z,9.50
2019-05-06T07:20:52.641Z,10.00
2019-05-06T07:24:16.593Z,9.80
2019-05-06T07:27:42.020Z,9.90
2019-05-06T07:31:18.824Z,9.80
2019-05-06T07:34:32.212Z,9.70
2019-05-06T07:37:56.286Z,9.60
2019-05-06T07:41:23.498Z,9.90
2019-05-06T07:44:48.990Z,10.10
2019-05-06T07:48:12.972Z,10.00
2019-05-06T07:51:36.915Z,10.20
2019-05-06T07:55:02.537Z,10.40
2019-05-06T07:58:26.313Z,10.40
2019-05-06T08:01:50.164Z,10.10
2019-05-06T08:05:13.987Z,10.70
2019-05-06T08:08:37.856Z,11.00
2019-05-06T08:12:02.826Z,11.50
2019-05-06T08:15:26.739Z,11.40
2019-05-06T08:18:52.391Z,11.20
2019-05-06T08:22:22.572Z,11.50
2019-05-06T08:25:47.744Z,11.50
2019-05-06T08:29:12.158Z,11.60
2019-05-06T08:32:36.555Z,11.70
2019-05-06T08:36:08.870Z,11.70
2019-05-06T08:39:27.263Z,11.80
2019-05-06T08:42:53.061Z,11.60
2019-05-06T08:46:16.659Z,11.50
2019-05-06T08:49:58.442Z,12.00
2019-05-06T08:53:24.304Z,11.80
2019-05-06T08:56:48.352Z,11.80
2019-05-06T09:00:12.826Z,11.90
2019-05-06T09:03:36.773Z,11.70
2019-05-06T09:07:02.767Z,12.10
2019-05-06T09:10:26.121Z,12.90
2019-05-06T09:13:51.990Z,13.60
2019-05-06T09:17:15.529Z,15.30
2019-05-06T09:20:38.452Z,16.50
2019-05-06T09:24:02.224Z,18.10
2019-05-06T09:27:33.338Z,19.10
2019-05-06T09:30:58.039Z,19.00
2019-05-06T09:34:23.380Z,19.80
2019-05-06T09:37:46.628Z,19.20
2019-05-06T09:41:09.594Z,18.30
2019-05-06T09:44:33.658Z,18.70
2019-05-06T09:48:04.859Z,20.00
2019-05-06T09:51:28.632Z,20.90
2019-05-06T09:54:54.060Z,19.40
2019-05-06T09:58:17.796Z,18.60
2019-05-06T10:01:43.697Z,17.60
2019-05-06T10:05:07.319Z,18.20
2019-05-06T10:08:32.304Z,17.40
2019-05-06T10:11:56.359Z,17.00
2019-05-06T10:15:21.856Z,16.70
2019-05-06T10:18:45.763Z,16.50
2019-05-06T10:22:09.648Z,16.40
2019-05-06T10:25:33.732Z,15.80
2019-05-06T10:28:59.229Z,15.30
2019-05-06T10:32:27.210Z,14.80
2019-05-06T10:35:53.020Z,14.30
2019-05-06T10:39:19.488Z,14.30
2019-05-06T10:42:49.188Z,14.00
2019-05-06T10:46:13.284Z,14.40
2019-05-06T10:49:37.098Z,14.10
2019-05-06T10:53:13.559Z,13.80
2019-05-06T10:56:52.451Z,14.00
2019-05-06T11:00:05.575Z,14.20
2019-05-06T11:03:30.161Z,14.40
2019-05-06T11:06:53.896Z,15.10
2019-05-06T11:10:27.026Z,14.90
2019-05-06T11:13:43.794Z,15.40
2019-05-06T11:17:07.720Z,15.40
2019-05-06T11:20:33.486Z,15.30
2019-05-06T11:23:57.097Z,15.20
2019-05-06T11:27:28.913Z,15.00
2019-05-06T11:31:02.209Z,14.70
2019-05-06T11:34:27.215Z,14.60
2019-05-06T11:37:58.501Z,14.60
2019-05-06T11:41:23.396Z,14.70
2019-05-06T11:44:47.383Z,15.10
2019-05-06T11:48:14.359Z,15.00
2019-05-06T11:51:36.823Z,14.70
2019-05-06T11:55:02.183Z,14.90
2019-05-06T11:58:42.446Z,14.80
2019-05-06T12:02:07.033Z,14.50
2019-05-06T12:05:32.897Z,14.20
2019-05-06T12:08:56.268Z,14.00
2019-05-06T12:12:20.074Z,14.10
2019-05-06T12:15:43.894Z,14.60
2019-05-06T12:19:07.640Z,14.70
2019-05-06T12:22:37.656Z,15.60
2019-05-06T12:26:02.476Z,16.10
2019-05-06T12:29:26.722Z,16.90
2019-05-06T12:33:04.200Z,15.90
2019-05-06T12:36:28.133Z,16.40
2019-05-06T12:39:54.067Z,15.90
2019-05-06T12:43:25.679Z,15.80
2019-05-06T12:46:53.012Z,16.00
2019-05-06T12:50:16.835Z,16.00
2019-05-06T12:53:42.759Z,15.80
2019-05-06T12:57:06.335Z,15.00
2019-05-06T13:00:32.097Z,15.00
2019-05-06T13:03:55.939Z,14.80
2019-05-06T13:07:24.123Z,15.40
2019-05-06T13:10:48.020Z,15.30
2019-05-06T13:14:12.702Z,15.50
2019-05-06T13:17:36.896Z,15.40
2019-05-06T13:21:06.346Z,15.50
2019-05-06T13:24:27.360Z,15.00
2019-05-06T13:27:52.763Z,14.90
2019-05-06T13:31:21.347Z,14.60
2019-05-06T13:34:42.537Z,14.50
2019-05-06T13:38:06.535Z,14.20
2019-05-06T13:41:32.569Z,14.40
2019-05-06T13:44:56.125Z,14.30
2019-05-06T13:48:24.243Z,14.00
2019-05-06T13:51:52.560Z,14.00
2019-05-06T13:55:16.611Z,14.40
2019-05-06T13:58:42.924Z,14.40
2019-05-06T14:02:08.337Z,14.50
2019-05-06T14:05:33.048Z,14.60
2019-05-06T14:08:57.177Z,14.30
2019-05-06T14:12:22.187Z,14.10
2019-05-06T14:15:46.219Z,14.50
2019-05-06T14:19:12.978Z,14.90
2019-05-06T14:22:36.003Z,14.40
2019-05-06T14:26:04.431Z,13.90
2019-05-06T14:29:33.201Z,13.80
2019-05-06T14:32:57.740Z,13.70
2019-05-06T14:36:22.881Z,13.70
2019-05-06T14:39:55.522Z,13.50
2019-05-06T14:43:14.401Z,13.40
2019-05-06T14:46:55.168Z,13.30
2019-05-06T14:50:30.742Z,13.40
2019-05-06T14:53:47.568Z,13.20
2019-05-06T14:57:13.269Z,13.10
2019-05-06T15:00:37.320Z,12.90
2019-05-06T15:04:01.203Z,12.90
2019-05-06T15:07:25.020Z,12.70
2019-05-06T15:10:49.567Z,12.60
2019-05-06T15:14:13.736Z,12.90
2019-05-06T15:17:37.889Z,13.00
2019-05-06T15:21:29.025Z,12.90
2019-05-06T15:24:27.928Z,12.70
2019-05-06T15:27:53.129Z,12.70
2019-05-06T15:31:35.226Z,12.70
2019-05-06T15:35:02.583Z,12.50
2019-05-06T15:38:28.203Z,12.40
2019-05-06T15:41:53.850Z,12.30
2019-05-06T15:45:18.309Z,12.30
2019-05-06T15:48:42.348Z,12.40
2019-05-06T15:52:06.595Z,12.20
2019-05-06T15:55:32.652Z,12.10
2019-05-06T15:58:56.492Z,12.10
2019-05-06T16:02:20.504Z,11.80
2019-05-06T16:05:44.501Z,11.80
2019-05-06T16:09:08.548Z,11.80
2019-05-06T16:12:32.712Z,11.70
2019-05-06T16:15:57.051Z,11.70
2019-05-06T16:19:22.879Z,11.50
2019-05-06T16:22:48.371Z,11.50
2019-05-06T16:26:12.406Z,11.40
2019-05-06T16:29:36.425Z,11.30
2019-05-06T16:33:00.249Z,11.20
2019-05-06T16:36:25.651Z,11.20
2019-05-06T16:39:49.520Z,11.20
2019-05-06T16:43:13.367Z,11.10
2019-05-06T16:46:37.362Z,11.10
2019-05-06T16:50:01.343Z,11.10
2019-05-06T16:53:25.217Z,11.00
2019-05-06T16:57:02.987Z,10.90
2019-05-06T17:00:28.444Z,10.90
2019-05-06T17:03:56.976Z,10.80
2019-05-06T17:07:22.197Z,10.70
2019-05-06T17:10:46.582Z,10.50
2019-05-06T17:14:12.300Z,10.50
2019-05-06T17:17:43.436Z,10.40
2019-05-06T17:21:02.081Z,10.30
2019-05-06T17:24:25.975Z,10.20
2019-05-06T17:27:52.634Z,10.10
2019-05-06T17:31:22.394Z,10.00
2019-05-06T17:34:48.397Z,9.90
2019-05-06T17:38:13.969Z,9.80
2019-05-06T17:41:45.953Z,9.80
2019-05-06T17:45:06.341Z,9.70
2019-05-06T17:48:49.521Z,9.60
2019-05-06T17:52:17.660Z,9.50
2019-05-06T17:55:43.272Z,9.50
2019-05-06T17:59:07.175Z,9.50
2019-05-06T18:02:32.624Z,9.40
2019-05-06T18:05:56.609Z,9.40
2019-05-06T18:09:22.311Z,9.30
2019-05-06T18:12:46.204Z,9.30
2019-05-06T18:16:09.997Z,9.20
2019-05-06T18:19:33.909Z,9.10
2019-05-06T18:22:58.260Z,9.10
2019-05-06T18:26:22.994Z,9.10
2019-05-06T18:29:46.991Z,9.00
2019-05-06T18:33:13.139Z,9.00
2019-05-06T18:36:37.674Z,8.90
2019-05-06T18:40:01.508Z,8.90
2019-05-06T18:43:26.282Z,8.80
2019-05-06T18:46:50.332Z,8.80
2019-05-06T18:50:14.725Z,8.80
2019-05-06T18:53:38.770Z,8.80
2019-05-06T18:57:04.904Z,8.70
2019-05-06T19:00:31.884Z,8.70
2019-05-06T19:04:03.255Z,8.60
2019-05-06T19:07:27.326Z,8.60
2019-05-06T19:10:53.236Z,8.60
2019-05-06T19:14:17.066Z,8.60
2019-05-06T19:17:44.069Z,8.60
2019-05-06T19:21:07.538Z,8.60
2019-05-06T19:24:33.488Z,8.50
2019-05-06T19:27:57.035Z,8.50
2019-05-06T19:31:22.817Z,8.50
2019-05-06T19:34:49.576Z,8.40
2019-05-06T19:38:13.546Z,8.40
2019-05-06T19:41:37.990Z,8.30
2019-05-06T19:45:02.519Z,8.30
2019-05-06T19:48:26.611Z,8.30
2019-05-06T19:51:52.243Z,8.30
2019-05-06T19:55:16.016Z,8.30
2019-05-06T19:58:40.103Z,8.30
2019-05-06T20:02:05.163Z,8.30
2019-05-06T20:05:39.716Z,8.30
2019-05-06T20:09:22.573Z,8.30
2019-05-06T20:13:01.656Z,8.30
2019-05-06T20:16:22.897Z,8.30
2019-05-06T20:19:46.904Z,8.30
2019-05-06T20:23:12.516Z,8.30
2019-05-06T20:26:37.236Z,8.30
2019-05-06T20:30:03.421Z,8.20
2019-05-06T20:33:27.264Z,8.20
2019-05-06T20:36:52.778Z,8.20
2019-05-06T20:40:17.689Z,8.20
2019-05-06T20:43:42.329Z,8.20
2019-05-06T20:47:06.764Z,8.20
2019-05-06T20:50:32.173Z,8.20
2019-05-06T20:53:56.385Z,8.20
2019-05-06T20:57:20.343Z,8.20
2019-05-06T21:00:44.551Z,8.10
2019-05-06T21:04:08.657Z,8.10
2019-05-06T21:07:32.688Z,8.10
2019-05-06T21:10:56.987Z,8.00
2019-05-06T21:14:22.674Z,8.10
2019-05-06T21:17:46.978Z,8.00
2019-05-06T21:21:13.006Z,8.00
2019-05-06T21:24:36.978Z,8.00
2019-05-06T21:28:02.813Z,7.90
2019-05-06T21:31:26.693Z,7.90
2019-05-06T21:34:52.484Z,7.90
2019-05-06T21:38:16.268Z,7.90
2019-05-06T21:41:42.458Z,7.90
2019-05-06T21:45:07.175Z,7.90
2019-05-06T21:48:33.555Z,7.80
2019-05-06T21:51:57.047Z,7.80
2019-05-06T21:55:22.673Z,7.80
2019-05-06T21:58:46.401Z,7.80
2019-05-06T22:02:12.076Z,7.70
2019-05-06T22:05:35.980Z,7.60
2019-05-06T22:08:59.810Z,7.60
2019-05-06T22:12:24.536Z,7.50
2019-05-06T22:15:48.735Z,7.50
2019-05-06T22:19:12.645Z,7.50
2019-05-06T22:22:38.047Z,7.40
2019-05-06T22:26:11.299Z,7.40
2019-05-06T22:29:27.831Z,7.30
2019-05-06T22:32:52.740Z,7.30
2019-05-06T22:36:16.715Z,7.20
2019-05-06T22:39:43.269Z,7.20
2019-05-06T22:43:06.134Z,7.00
2019-05-06T22:59:54.154Z,6.70
2019-05-06T23:03:19.707Z,6.50
2019-05-06T23:06:43.547Z,6.40
2019-05-06T23:10:08.158Z,6.30
2019-05-06T23:42:56.923Z,5.20
2019-05-06T23:46:56.902Z,5.10
2019-05-06T23:50:57.165Z,5.00
2019-05-06T23:54:57.512Z,4.90
2019-05-06T23:58:22.362Z,4.80
